Accueil
METAR-TAF:

METAR-TAF

Aéroports :

Aéroport de Graz

Graz, Autriche

latitude: 47-00N, longitude: 015-26E, altitude: 340 m

Observation

Le bulletin a été fait il y a 10 minutes, à 08:20 UTC
Vent 2 kt de direction variable
Température 0°C
Humidité 100%
Pression 1007 hPa
Visibilité: 0400 m
brouillard

METAR: LOWG 050820Z VRB02KT 0400 R17/0700N R35/0300N FG VV003 00/M00 Q1007 R17/19//95 BECMG 0600

Heure: 09:30 (08:30 UTC)

Prévision

Le bulletin a été fait il y a 1 heure et 13 minutes, à 07:17 UTC
Prévision valable du 05 à 07 UTC au 06 à 06 UTC
Vent 4 kt de direction variable
Visibilité: 0300 m
à une hauteur de 200 ft
brouillard
Temporairement
du 05 à 07 UTC au 05 à 16 UTC
Visibilité: 2000 m
Nuages fragmentés à une hauteur de 1200 ft
faible bruine

TAF: LOWG 050717Z 0507/0606 VRB04KT 0300 FG VV002 TX03/0514Z TNM00/0507Z TEMPO 0507/0516 2000 -DZ BKN012

Observations et prévisions météorologiques de plus de 4000 aéroports (messages METAR et TAF).

Les stations disponibles sont représentées par des disques jaunes et rouges sur la carte.

Passer la souris dessus pour voir le nom de la station.

Cliquer dessus pour voir les observations et prévisions météorologiques.

Pour changer de carte: cliquez sur les boutons verts avec une croix noire pour zoomer, sur le bouton vert avec un tiret pour effectuer un zoom arrière, ou sur les flèches vertes pour les cartes adjacentes.


METAR-TAF: